Time;durP1;ratioP1;P1;durP2;ratioP2;P2;SDS_P1;SDS_P2;PMS_P1;PMS_P2;Temp;Humidity;BMP_temperature;BMP_pressure;BME280_temperature;BME280_humidity;BME280_pressure;Samples;Min_cycle;Max_cycle;Signal;HPM_P1;HPM_P2
2023/09/30 00:00:51;;;;;;;5.18;3.33;;;;;;;20.24;73.75;100667.66;2106691;28;20075;-69
2023/09/30 00:01:55;;;;;;;4.57;2.97;;;;;;;20.25;73.82;100669.28;2106825;28;20741;-69
2023/09/30 00:02:57;;;;;;;5.47;3.05;;;;;;;20.24;73.90;100670.38;2106542;28;20033;-68
2023/09/30 00:04:00;;;;;;;7.13;3.13;;;;;;;20.24;73.77;100663.00;2114063;28;20149;-69
2023/09/30 00:05:03;;;;;;;4.70;3.28;;;;;;;20.27;74.29;100669.69;2098313;28;20029;-69
2023/09/30 00:06:11;;;;;;;7.55;3.40;;;;;;;20.29;74.06;100664.72;2099259;28;20073;-68
2023/09/30 00:07:16;;;;;;;5.53;3.50;;;;;;;20.30;74.03;100671.75;2098442;28;20031;-68
2023/09/30 00:08:22;;;;;;;7.38;3.60;;;;;;;20.31;73.83;100678.81;2098878;28;20033;-68
2023/09/30 00:09:23;;;;;;;5.07;3.45;;;;;;;20.31;73.95;100678.81;2105407;28;20032;-69
2023/09/30 00:10:25;;;;;;;5.70;3.78;;;;;;;20.32;73.95;100669.50;2106398;28;20040;-68
2023/09/30 00:11:26;;;;;;;5.00;3.40;;;;;;;20.29;73.94;100670.97;2106283;28;20074;-69
2023/09/30 00:12:27;;;;;;;4.85;3.33;;;;;;;20.32;73.78;100675.75;2106356;28;20833;-69
2023/09/30 00:13:32;;;;;;;4.60;3.10;;;;;;;20.33;73.85;100674.63;2088713;28;20135;-69
2023/09/30 00:14:35;;;;;;;4.35;3.33;;;;;;;20.35;73.89;100679.72;2091157;28;20829;-69
2023/09/30 00:15:38;;;;;;;5.28;3.28;;;;;;;20.35;73.70;100679.72;2090410;28;20024;-69
2023/09/30 00:16:39;;;;;;;5.18;3.45;;;;;;;20.36;73.68;100675.84;2089794;28;20133;-68
2023/09/30 00:17:41;;;;;;;5.15;3.17;;;;;;;20.34;73.97;100665.28;2097940;28;20033;-69
2023/09/30 00:18:43;;;;;;;6.13;3.53;;;;;;;20.36;73.91;100678.59;2115133;28;21210;-69
2023/09/30 00:19:44;;;;;;;5.00;3.67;;;;;;;20.36;74.03;100670.38;2114903;28;20113;-69
2023/09/30 00:20:47;;;;;;;6.13;3.80;;;;;;;20.37;73.77;100674.72;2106493;28;20147;-68
2023/09/30 00:21:49;;;;;;;4.55;3.35;;;;;;;20.36;74.04;100670.38;2098126;28;20029;-68
2023/09/30 00:22:51;;;;;;;7.35;3.63;;;;;;;20.37;73.93;100672.00;2098263;28;20029;-68
2023/09/30 00:23:53;;;;;;;6.35;3.55;;;;;;;20.37;73.88;100666.53;2104530;28;20032;-68
2023/09/30 00:24:54;;;;;;;6.43;3.95;;;;;;;20.37;73.94;100661.06;2084038;28;20033;-69
2023/09/30 00:25:56;;;;;;;7.20;3.53;;;;;;;20.36;74.13;100671.22;2081859;28;20104;-68
2023/09/30 00:26:57;;;;;;;8.57;3.70;;;;;;;20.36;73.89;100670.38;2098217;28;20879;-68
2023/09/30 00:27:59;;;;;;;5.22;3.80;;;;;;;20.38;73.79;100668.91;2103325;28;20036;-68
2023/09/30 00:29:04;;;;;;;5.47;4.00;;;;;;;20.39;73.77;100661.50;2098597;28;20025;-69
2023/09/30 00:30:10;;;;;;;5.97;3.97;;;;;;;20.40;74.04;100665.03;2098997;28;20033;-69
2023/09/30 00:31:12;;;;;;;6.65;3.85;;;;;;;20.37;73.71;100661.88;2107248;28;20025;-68
2023/09/30 00:32:14;;;;;;;7.30;4.00;;;;;;;20.38;74.13;100659.94;2097645;28;21232;-69
2023/09/30 00:33:15;;;;;;;8.05;3.83;;;;;;;20.40;74.07;100667.78;2081458;28;20061;-69
2023/09/30 00:34:19;;;;;;;8.93;4.35;;;;;;;20.40;74.11;100665.84;2081087;28;20033;-69
2023/09/30 00:35:21;;;;;;;5.88;3.95;;;;;;;20.42;74.06;100665.50;2091430;28;20121;-69
2023/09/30 00:36:23;;;;;;;5.32;3.88;;;;;;;20.41;74.02;100672.91;2106682;28;20016;-69
2023/09/30 00:37:28;;;;;;;5.13;3.85;;;;;;;20.42;74.21;100668.22;2097820;28;20179;-69
2023/09/30 00:38:31;;;;;;;5.50;4.03;;;;;;;20.44;74.01;100666.75;2099284;27;20144;-69
2023/09/30 00:39:33;;;;;;;9.63;4.32;;;;;;;20.45;74.08;100673.81;2114532;28;20138;-69
2023/09/30 00:40:37;;;;;;;5.25;4.20;;;;;;;20.44;74.02;100666.75;2097667;28;20048;-69
2023/09/30 00:41:41;;;;;;;5.85;4.20;;;;;;;20.44;74.14;100665.97;2081699;28;20033;-69
2023/09/30 00:42:43;;;;;;;7.65;4.32;;;;;;;20.45;74.21;100664.81;2087261;27;20888;-69
2023/09/30 00:43:49;;;;;;;6.45;4.70;;;;;;;20.43;73.94;100665.19;2098124;28;20036;-69
2023/09/30 00:44:51;;;;;;;7.40;4.32;;;;;;;20.47;73.96;100660.63;2107655;27;20848;-69
2023/09/30 00:46:25;;;;;;;7.15;5.07;;;;;;;20.47;73.92;100657.09;2093152;28;20148;-69
2023/09/30 00:47:30;;;;;;;8.57;4.55;;;;;;;20.44;73.87;100664.03;2087219;28;20213;-69
2023/09/30 00:48:33;;;;;;;7.07;4.70;;;;;;;20.42;74.08;100655.38;2098638;28;20036;-69
2023/09/30 00:49:38;;;;;;;7.10;5.13;;;;;;;20.43;74.32;100658.88;2106295;28;20928;-70
2023/09/30 00:50:40;;;;;;;5.68;4.32;;;;;;;20.43;74.04;100667.09;2098289;28;20037;-69
2023/09/30 00:51:46;;;;;;;5.15;4.18;;;;;;;20.43;74.17;100654.25;2089979;28;20037;-69
2023/09/30 00:52:48;;;;;;;6.13;4.82;;;;;;;20.45;74.20;100653.88;2076126;28;20037;-69
2023/09/30 00:53:54;;;;;;;7.18;4.55;;;;;;;20.46;74.39;100659.03;2081889;28;20076;-69
2023/09/30 00:54:55;;;;;;;6.10;4.57;;;;;;;20.47;74.16;100665.28;2088568;28;20026;-69
2023/09/30 00:55:58;;;;;;;5.78;4.50;;;;;;;20.50;74.23;100657.19;2081269;28;20080;-69
2023/09/30 00:57:01;;;;;;;9.80;4.75;;;;;;;20.51;73.98;100664.28;2098306;28;20033;-69
2023/09/30 00:58:03;;;;;;;9.07;4.60;;;;;;;20.53;73.97;100664.72;2098180;28;20049;-69
2023/09/30 00:59:08;;;;;;;11.38;5.03;;;;;;;20.52;74.05;100657.69;2098399;28;20859;-69
2023/09/30 01:00:12;;;;;;;8.73;4.63;;;;;;;20.51;73.94;100656.06;2106041;28;20064;-69
2023/09/30 01:01:13;;;;;;;9.20;5.22;;;;;;;20.50;74.21;100662.66;2097876;28;20733;-69
2023/09/30 01:02:15;;;;;;;8.10;4.70;;;;;;;20.48;74.19;100664.13;2089130;28;20156;-69
2023/09/30 01:03:17;;;;;;;9.82;4.80;;;;;;;20.48;74.18;100667.66;2098412;28;20032;-69
2023/09/30 01:04:20;;;;;;;8.40;5.18;;;;;;;20.46;74.33;100664.50;2106438;28;20021;-69
2023/09/30 01:05:22;;;;;;;8.13;5.00;;;;;;;20.45;74.44;100668.34;2097678;28;20122;-69
2023/09/30 01:06:24;;;;;;;7.65;4.72;;;;;;;20.46;74.47;100661.75;2089902;28;20046;-70
2023/09/30 01:07:26;;;;;;;6.40;4.88;;;;;;;20.47;74.46;100660.63;2097962;28;20060;-70
2023/09/30 01:08:28;;;;;;;9.13;5.18;;;;;;;20.45;74.46;100657.41;2097712;28;20954;-70
2023/09/30 01:09:30;;;;;;;10.05;4.80;;;;;;;20.46;74.53;100664.50;2089498;28;20041;-69
2023/09/30 01:10:32;;;;;;;6.45;4.95;;;;;;;20.48;74.51;100675.84;2082484;28;20042;-70
2023/09/30 01:11:34;;;;;;;6.88;5.03;;;;;;;20.46;74.38;100669.94;2081589;28;20033;-69
2023/09/30 01:12:37;;;;;;;11.45;5.18;;;;;;;20.46;74.48;100664.50;2081019;28;20104;-69
2023/09/30 01:13:38;;;;;;;9.13;5.35;;;;;;;20.44;74.37;100669.50;2097946;28;20917;-69
2023/09/30 01:14:42;;;;;;;7.63;5.15;;;;;;;20.41;74.73;100656.50;2103412;28;20036;-69
2023/09/30 01:15:44;;;;;;;8.38;5.43;;;;;;;20.41;74.82;100661.97;2098268;28;20030;-69
2023/09/30 01:16:46;;;;;;;7.65;5.50;;;;;;;20.41;74.78;100661.97;2097674;28;20056;-70
2023/09/30 01:17:49;;;;;;;7.97;5.10;;;;;;;20.42;74.80;100657.31;2101055;28;20025;-70
2023/09/30 01:18:51;;;;;;;7.20;5.35;;;;;;;20.41;74.78;100653.78;2097575;28;20021;-69
2023/09/30 01:19:53;;;;;;;7.60;4.95;;;;;;;20.41;74.73;100659.25;2089851;28;20034;-69
2023/09/30 01:20:56;;;;;;;9.43;5.35;;;;;;;20.39;74.76;100656.06;2089260;28;20849;-69
2023/09/30 01:22:05;;;;;;;8.60;5.22;;;;;;;20.38;74.96;100654.47;2073524;28;20042;-70
2023/09/30 01:23:13;;;;;;;12.98;5.45;;;;;;;20.38;75.09;100658.00;2088166;28;20939;-70
2023/09/30 01:24:15;;;;;;;9.25;5.90;;;;;;;20.37;74.55;100667.34;2098776;28;20025;-69
2023/09/30 01:25:19;;;;;;;10.32;6.07;;;;;;;20.35;75.13;100668.81;2096388;28;20063;-69
2023/09/30 01:26:20;;;;;;;7.65;5.88;;;;;;;20.35;75.14;100664.13;2081851;28;20931;-69
2023/09/30 01:27:23;;;;;;;12.27;6.55;;;;;;;20.35;75.24;100658.69;2089512;28;20841;-70
2023/09/30 01:28:24;;;;;;;10.05;5.57;;;;;;;20.36;75.21;100664.94;2114509;27;20040;-69
2023/09/30 01:29:28;;;;;;;9.23;6.15;;;;;;;20.37;75.18;100666.53;2114337;28;20767;-69
2023/09/30 01:30:33;;;;;;;11.82;5.95;;;;;;;20.36;75.14;100664.94;2098452;28;20967;-69
2023/09/30 01:31:36;;;;;;;11.02;5.78;;;;;;;20.36;75.14;100665.75;2098002;28;20029;-69
2023/09/30 01:32:40;;;;;;;8.43;6.13;;;;;;;20.37;75.18;100664.59;2090565;28;20021;-70
2023/09/30 01:33:44;;;;;;;10.93;6.40;;;;;;;20.36;75.19;100670.38;2098324;28;20060;-69
2023/09/30 01:34:45;;;;;;;8.70;6.00;;;;;;;20.35;75.28;100666.06;2097446;28;20044;-69
2023/09/30 01:35:47;;;;;;;10.05;6.18;;;;;;;20.29;75.28;100675.63;2106081;28;20136;-69
2023/09/30 01:36:52;;;;;;;8.85;6.30;;;;;;;20.23;75.52;100671.53;2113903;28;20046;-69
2023/09/30 01:37:54;;;;;;;8.52;6.15;;;;;;;20.20;75.75;100674.94;2105982;28;20146;-69
2023/09/30 01:38:56;;;;;;;7.65;5.97;;;;;;;20.17;75.81;100673.69;2089298;28;20877;-69
2023/09/30 01:39:58;;;;;;;9.57;6.20;;;;;;;20.16;75.84;100682.22;2081509;28;20073;-69
2023/09/30 01:41:01;;;;;;;12.57;6.80;;;;;;;20.12;76.25;100672.00;2089340;28;20041;-69
2023/09/30 01:42:02;;;;;;;8.85;6.22;;;;;;;20.09;76.19;100671.88;2089525;28;20041;-67
2023/09/30 01:43:05;;;;;;;8.55;6.18;;;;;;;20.08;76.59;100681.19;2083526;28;20081;-68
2023/09/30 01:44:09;;;;;;;10.27;6.65;;;;;;;20.05;76.64;100674.50;2091881;28;20021;-69
2023/09/30 01:45:11;;;;;;;9.80;5.72;;;;;;;20.05;76.75;100669.03;2107103;28;20025;-68
2023/09/30 01:46:16;;;;;;;8.45;5.78;;;;;;;20.03;76.83;100671.28;2098902;28;20039;-70
2023/09/30 01:47:18;;;;;;;10.73;5.78;;;;;;;20.03;76.78;100668.56;2106797;28;20802;-71
2023/09/30 01:48:23;;;;;;;10.70;5.93;;;;;;;20.01;76.93;100659.91;2106732;28;20032;-68
2023/09/30 01:49:26;;;;;;;9.70;5.47;;;;;;;20.01;77.04;100657.19;2106668;28;20064;-68
2023/09/30 01:50:27;;;;;;;10.52;6.00;;;;;;;19.99;76.90;100650.50;2115213;28;20879;-68
2023/09/30 01:51:29;;;;;;;8.63;5.75;;;;;;;19.99;77.20;100659.47;2106225;28;20155;-69
2023/09/30 01:52:33;;;;;;;10.30;5.78;;;;;;;19.99;77.20;100655.94;2089715;28;20903;-68
2023/09/30 01:53:37;;;;;;;8.80;5.95;;;;;;;19.94;77.30;100648.75;2090369;28;20172;-69
2023/09/30 01:54:40;;;;;;;11.18;5.95;;;;;;;19.91;77.44;100649.44;2090779;28;20097;-68
2023/09/30 01:55:42;;;;;;;8.98;5.70;;;;;;;19.91;77.64;100646.72;2097001;28;20041;-69
2023/09/30 01:56:44;;;;;;;8.38;5.88;;;;;;;19.90;77.72;100642.41;2090003;28;20045;-69
2023/09/30 01:57:48;;;;;;;9.35;5.55;;;;;;;19.90;77.61;100645.13;2098370;28;20044;-69
2023/09/30 01:58:50;;;;;;;11.25;5.90;;;;;;;19.89;77.78;100647.06;2106421;28;20854;-68
2023/09/30 01:59:51;;;;;;;9.73;6.22;;;;;;;19.87;77.84;100643.88;2097964;28;20927;-68
2023/09/30 02:00:54;;;;;;;6.68;5.63;;;;;;;19.86;77.75;100641.47;2081772;28;20034;-68
2023/09/30 02:01:55;;;;;;;9.27;6.07;;;;;;;19.81;77.92;100647.16;2073810;28;20575;-68
2023/09/30 02:02:58;;;;;;;11.15;6.38;;;;;;;19.78;78.36;100645.91;2090150;28;20042;-68
2023/09/30 02:04:00;;;;;;;13.77;6.82;;;;;;;19.76;78.50;100647.38;2106772;28;20833;-68
2023/09/30 02:05:08;;;;;;;11.05;6.43;;;;;;;19.74;78.74;100655.13;2097971;28;20148;-68
2023/09/30 02:06:11;;;;;;;10.07;6.15;;;;;;;19.72;78.92;100657.38;2090503;28;20018;-68
2023/09/30 02:07:13;;;;;;;12.60;6.05;;;;;;;19.71;78.89;100644.88;2091391;28;20123;-68
2023/09/30 02:08:15;;;;;;;10.15;6.10;;;;;;;19.72;79.22;100651.91;2090880;28;20026;-68
2023/09/30 02:09:21;;;;;;;9.48;6.53;;;;;;;19.71;79.17;100647.59;2091633;28;20026;-68
2023/09/30 02:10:23;;;;;;;10.23;6.38;;;;;;;19.72;79.26;100654.66;2099088;28;20075;-68
2023/09/30 02:11:24;;;;;;;9.00;6.35;;;;;;;19.69;79.19;100650.66;2107750;28;20151;-68
2023/09/30 02:12:28;;;;;;;10.55;6.85;;;;;;;19.69;79.17;100658.84;2091120;28;20041;-68
2023/09/30 02:13:29;;;;;;;9.02;6.13;;;;;;;19.70;79.39;100665.88;2083357;28;20036;-68
2023/09/30 02:14:32;;;;;;;10.02;6.35;;;;;;;19.72;79.63;100668.28;2090877;28;20032;-68
2023/09/30 02:15:34;;;;;;;11.13;6.50;;;;;;;19.70;79.58;100662.34;2108218;28;20028;-68
2023/09/30 02:16:35;;;;;;;14.85;6.57;;;;;;;19.70;79.41;100660.41;2099578;28;20075;-68
2023/09/30 02:17:38;;;;;;;11.88;6.57;;;;;;;19.66;79.58;100654.84;2091576;28;20064;-68
2023/09/30 02:18:41;;;;;;;12.43;7.03;;;;;;;19.63;79.82;100652.75;2099887;28;20033;-68
2023/09/30 02:19:43;;;;;;;13.02;7.22;;;;;;;19.64;79.98;100668.03;2107814;28;20044;-68
2023/09/30 02:20:46;;;;;;;9.40;6.70;;;;;;;19.65;80.15;100664.19;2108010;28;20075;-68
2023/09/30 02:21:48;;;;;;;11.20;6.25;;;;;;;19.66;80.15;100663.03;2099909;28;20067;-68
2023/09/30 02:22:50;;;;;;;10.35;6.63;;;;;;;19.66;80.10;100665.75;2116425;28;20032;-68
2023/09/30 02:23:54;;;;;;;12.90;6.78;;;;;;;19.66;80.17;100668.47;2107790;28;20021;-69
2023/09/30 02:24:56;;;;;;;8.93;6.75;;;;;;;19.65;80.49;100664.19;2099872;28;20021;-68
2023/09/30 02:25:58;;;;;;;11.20;6.95;;;;;;;19.63;80.45;100666.41;2086205;28;20848;-68
2023/09/30 02:26:59;;;;;;;9.40;6.88;;;;;;;19.64;80.90;100668.03;2081496;28;20044;-68
2023/09/30 02:28:01;;;;;;;11.60;7.15;;;;;;;19.64;80.76;100676.22;2091016;28;20029;-68
2023/09/30 02:29:03;;;;;;;9.48;6.70;;;;;;;19.65;80.73;100669.63;2099293;28;20060;-68
2023/09/30 02:30:05;;;;;;;9.73;6.90;;;;;;;19.65;80.89;100680.53;2107869;28;20779;-68
2023/09/30 02:31:10;;;;;;;14.70;6.75;;;;;;;19.67;80.80;100678.28;2116085;28;20139;-69
2023/09/30 02:32:13;;;;;;;11.88;7.15;;;;;;;19.66;80.76;100678.59;2099927;28;20134;-69
2023/09/30 02:33:15;;;;;;;11.35;7.30;;;;;;;19.64;80.70;100678.97;2108120;28;20071;-68
2023/09/30 02:34:17;;;;;;;11.07;7.18;;;;;;;19.63;81.21;100679.25;2107617;28;20279;-69
2023/09/30 02:35:20;;;;;;;10.68;7.13;;;;;;;19.62;81.29;100683.91;2091063;28;20993;-68
2023/09/30 02:36:22;;;;;;;11.10;7.28;;;;;;;19.64;81.24;100675.41;2091624;28;20040;-68
2023/09/30 02:37:25;;;;;;;10.23;6.65;;;;;;;19.64;81.48;100673.50;2099606;28;20029;-68
2023/09/30 02:38:27;;;;;;;11.90;7.43;;;;;;;19.65;81.61;100680.53;2090961;28;20026;-68
2023/09/30 02:39:28;;;;;;;14.15;7.35;;;;;;;19.64;81.75;100678.97;2099132;28;20045;-69
2023/09/30 02:40:30;;;;;;;10.30;7.45;;;;;;;19.59;82.15;100689.25;2090893;28;20032;-68
2023/09/30 02:41:32;;;;;;;14.00;7.80;;;;;;;19.51;82.62;100680.00;2098480;28;20037;-68
2023/09/30 02:42:33;;;;;;;11.25;7.22;;;;;;;19.49;82.88;100695.91;2099569;28;20146;-68
2023/09/30 02:43:35;;;;;;;12.98;7.40;;;;;;;19.51;83.06;100692.84;2116446;28;20017;-68
2023/09/30 02:44:36;;;;;;;10.20;7.13;;;;;;;19.52;82.86;100700.69;2107960;28;20036;-68
2023/09/30 02:45:38;;;;;;;10.60;7.05;;;;;;;19.54;83.13;100690.22;2082770;28;20033;-69
2023/09/30 02:46:40;;;;;;;18.98;7.50;;;;;;;19.54;82.85;100692.16;2082870;28;20073;-68
2023/09/30 02:47:44;;;;;;;11.02;7.40;;;;;;;19.58;82.97;100691.19;2082957;28;20033;-68
2023/09/30 02:48:46;;;;;;;10.10;6.72;;;;;;;19.59;82.81;100700.94;2083798;28;20152;-68
2023/09/30 02:49:51;;;;;;;12.90;7.72;;;;;;;19.60;82.74;100697.06;2100023;28;20021;-68
2023/09/30 02:50:55;;;;;;;10.98;7.18;;;;;;;19.60;82.99;100699.81;2091199;28;20121;-68
2023/09/30 02:51:56;;;;;;;13.15;6.75;;;;;;;19.60;82.83;100699.00;2075041;28;20064;-68
2023/09/30 02:52:58;;;;;;;9.68;7.00;;;;;;;19.60;82.96;100694.34;2066140;28;20022;-68
2023/09/30 02:54:00;;;;;;;10.38;6.68;;;;;;;19.59;83.07;100698.22;2083054;28;20100;-68
2023/09/30 02:55:04;;;;;;;11.48;7.13;;;;;;;19.60;83.08;100694.34;2099488;28;20850;-68
2023/09/30 02:56:08;;;;;;;12.43;7.38;;;;;;;19.61;83.14;100689.72;2090242;28;20223;-68
2023/09/30 02:57:09;;;;;;;9.98;6.93;;;;;;;19.59;83.29;100695.50;2082538;28;20855;-68
2023/09/30 02:58:11;;;;;;;16.17;6.97;;;;;;;19.59;83.27;100697.44;2098934;28;20079;-68
2023/09/30 02:59:15;;;;;;;11.00;7.05;;;;;;;19.60;83.39;100705.25;2090852;28;20029;-68
2023/09/30 03:00:23;;;;;;;10.43;6.68;;;;;;;19.56;83.35;100701.63;2082667;28;20046;-68
2023/09/30 03:01:26;;;;;;;10.63;7.45;;;;;;;19.51;83.66;100693.63;2076633;28;20248;-68
2023/09/30 03:02:29;;;;;;;10.50;6.45;;;;;;;19.56;83.72;100707.06;2091526;28;20111;-68
2023/09/30 03:03:31;;;;;;;9.27;6.75;;;;;;;19.56;84.09;100701.63;2107355;28;20861;-68
2023/09/30 03:04:39;;;;;;;11.40;6.68;;;;;;;19.57;83.89;100697.75;2107636;28;20906;-68
2023/09/30 03:05:41;;;;;;;11.55;6.53;;;;;;;19.57;83.91;100707.88;2099020;28;20032;-68
2023/09/30 03:06:44;;;;;;;10.60;7.05;;;;;;;19.57;83.72;100700.47;2083102;28;20026;-68
2023/09/30 03:07:50;;;;;;;10.50;6.65;;;;;;;19.57;84.02;100700.47;2091112;28;20033;-68
2023/09/30 03:08:53;;;;;;;11.82;6.93;;;;;;;19.56;84.10;100696.16;2107856;28;20021;-68
2023/09/30 03:10:00;;;;;;;14.82;8.10;;;;;;;19.54;84.11;100703.88;2107528;28;20110;-68
2023/09/30 03:11:02;;;;;;;12.63;7.28;;;;;;;19.56;84.12;100701.63;2112254;28;20013;-68
2023/09/30 03:12:09;;;;;;;11.10;7.25;;;;;;;19.56;84.22;100709.78;2108279;28;20037;-68
2023/09/30 03:13:11;;;;;;;15.43;7.20;;;;;;;19.57;84.31;100705.94;2107168;28;20037;-68
2023/09/30 03:14:15;;;;;;;11.75;6.57;;;;;;;19.58;84.29;100712.22;2091079;28;20034;-68
2023/09/30 03:15:17;;;;;;;11.43;6.93;;;;;;;19.58;84.41;100721.19;2083764;28;20120;-68
2023/09/30 03:16:20;;;;;;;12.27;7.25;;;;;;;19.59;84.29;100720.03;2099378;28;20135;-68
2023/09/30 03:17:25;;;;;;;10.02;6.55;;;;;;;19.59;84.38;100719.25;2099524;28;20146;-68
2023/09/30 03:18:28;;;;;;;11.48;7.30;;;;;;;19.58;84.33;100726.63;2090960;28;20152;-68
2023/09/30 03:19:32;;;;;;;10.77;6.78;;;;;;;19.57;84.63;100726.94;2099790;28;20021;-68
2023/09/30 03:20:36;;;;;;;10.35;6.28;;;;;;;19.55;84.77;100724.56;2107729;28;20099;-68
2023/09/30 03:21:38;;;;;;;11.70;7.30;;;;;;;19.58;84.70;100728.56;2107255;28;20135;-68
2023/09/30 03:22:40;;;;;;;10.25;7.13;;;;;;;19.56;84.93;100730.81;2099346;28;20886;-68
2023/09/30 03:23:42;;;;;;;12.25;7.40;;;;;;;19.51;85.30;100737.25;2107466;28;20127;-68
2023/09/30 03:24:43;;;;;;;10.00;6.90;;;;;;;19.47;85.63;100741.81;2107702;28;20801;-68
2023/09/30 03:25:45;;;;;;;10.02;7.43;;;;;;;19.46;85.95;100748.41;2082519;28;20033;-68
2023/09/30 03:26:47;;;;;;;14.55;6.38;;;;;;;19.41;86.09;100745.84;2096575;28;20021;-68
2023/09/30 03:27:50;;;;;;;7.97;5.43;;;;;;;19.35;86.28;100747.97;2115702;28;20020;-69
2023/09/30 03:28:53;;;;;;;9.23;4.65;;;;;;;19.28;86.24;100741.47;2099283;28;20946;-68
2023/09/30 03:29:58;;;;;;;6.97;3.38;;;;;;;19.17;86.01;100752.00;2107321;28;20045;-68
2023/09/30 03:30:59;;;;;;;8.05;2.90;;;;;;;19.08;85.86;100762.16;2098834;28;20037;-68
2023/09/30 03:32:01;;;;;;;6.18;3.58;;;;;;;19.03;85.72;100763.13;2099414;28;20902;-68
2023/09/30 03:33:04;;;;;;;5.72;2.03;;;;;;;18.92;84.77;100761.94;2099070;28;20013;-68
2023/09/30 03:34:06;;;;;;;3.95;1.90;;;;;;;18.77;84.36;100776.13;2091212;28;20136;-68
2023/09/30 03:35:14;;;;;;;5.65;1.98;;;;;;;18.73;84.59;100770.53;2098666;28;20021;-69
2023/09/30 03:36:19;;;;;;;3.13;1.70;;;;;;;18.66;84.67;100776.47;2084755;28;20041;-69
2023/09/30 03:37:21;;;;;;;3.67;2.20;;;;;;;18.64;84.61;100783.34;2099227;28;20037;-68
2023/09/30 03:38:23;;;;;;;3.90;1.60;;;;;;;18.62;84.77;100780.16;2107279;28;20044;-68
2023/09/30 03:39:27;;;;;;;6.15;1.75;;;;;;;18.62;84.86;100791.84;2090575;28;20037;-68
2023/09/30 03:40:33;;;;;;;2.92;1.90;;;;;;;18.63;85.08;100782.56;2091303;28;20076;-68
2023/09/30 03:41:37;;;;;;;3.92;1.55;;;;;;;18.63;84.79;100792.63;2106953;28;20032;-69
2023/09/30 03:42:40;;;;;;;3.20;1.40;;;;;;;18.60;84.68;100790.56;2107607;28;20048;-69
2023/09/30 03:43:44;;;;;;;4.70;1.73;;;;;;;18.53;84.65;100799.25;2116588;27;20043;-69
2023/09/30 03:44:45;;;;;;;4.32;1.70;;;;;;;18.50;85.14;100802.63;2124604;27;20032;-69
2023/09/30 03:45:48;;;;;;;3.60;1.23;;;;;;;18.47;85.16;100790.47;2124554;27;20024;-68
2023/09/30 03:46:50;;;;;;;3.92;1.48;;;;;;;18.45;85.32;100797.38;2107199;28;20896;-68
2023/09/30 03:47:53;;;;;;;3.55;1.30;;;;;;;18.41;84.98;100796.41;2116221;27;20036;-69
2023/09/30 03:48:55;;;;;;;5.32;1.63;;;;;;;18.35;85.09;100797.69;2123987;27;20146;-68
2023/09/30 03:49:58;;;;;;;5.00;1.40;;;;;;;18.29;85.18;100800.59;2107502;28;20103;-68
2023/09/30 03:51:14;;;;;;;7.07;1.35;;;;;;;18.26;85.17;100803.97;2107807;28;20911;-68
2023/09/30 03:52:16;;;;;;;4.00;1.40;;;;;;;18.25;85.16;100805.09;2094817;28;20049;-68
2023/09/30 03:53:19;;;;;;;4.50;1.10;;;;;;;18.22;84.77;100804.94;2090366;28;20068;-68
2023/09/30 03:54:21;;;;;;;4.00;1.02;;;;;;;18.21;84.49;100801.41;2107679;27;20968;-68
2023/09/30 03:55:23;;;;;;;3.60;1.52;;;;;;;18.19;84.21;100805.56;2115895;27;20024;-68
2023/09/30 03:56:25;;;;;;;3.72;1.13;;;;;;;18.14;83.66;100814.72;2105109;28;20055;-68
2023/09/30 03:57:27;;;;;;;7.43;1.17;;;;;;;18.12;83.92;100810.72;2098971;28;20025;-68
2023/09/30 03:58:29;;;;;;;3.90;1.30;;;;;;;18.12;83.74;100811.53;2099249;28;20053;-68
2023/09/30 03:59:31;;;;;;;6.95;1.10;;;;;;;18.01;83.23;100813.78;2090297;28;20139;-69
2023/09/30 04:00:33;;;;;;;6.18;1.30;;;;;;;17.95;83.17;100817.78;2090458;28;20216;-68
2023/09/30 04:01:34;;;;;;;11.48;1.40;;;;;;;17.88;82.91;100822.13;2097401;28;20029;-68
2023/09/30 04:02:36;;;;;;;4.72;1.13;;;;;;;17.88;83.05;100836.53;2090512;28;20096;-68
2023/09/30 04:03:43;;;;;;;3.28;1.02;;;;;;;17.87;82.98;100825.94;2090746;28;20072;-68
2023/09/30 04:04:51;;;;;;;4.03;1.00;;;;;;;17.87;82.91;100832.19;2099935;28;20028;-68
2023/09/30 04:05:52;;;;;;;3.92;0.93;;;;;;;17.89;82.77;100834.59;2107454;28;20036;-68
2023/09/30 04:06:56;;;;;;;4.93;1.30;;;;;;;17.93;82.77;100830.13;2106842;28;20071;-69
2023/09/30 04:07:58;;;;;;;4.45;1.23;;;;;;;17.96;82.49;100832.19;2091202;28;20042;-68
2023/09/30 04:09:01;;;;;;;5.38;1.40;;;;;;;17.96;82.25;100834.91;2098572;28;20964;-68
2023/09/30 04:10:05;;;;;;;5.25;1.13;;;;;;;17.99;82.19;100839.72;2098844;28;20951;-68
2023/09/30 04:11:07;;;;;;;5.72;1.50;;;;;;;17.96;81.54;100840.34;2090720;28;20037;-68
2023/09/30 04:12:11;;;;;;;4.00;1.42;;;;;;;17.95;81.36;100838.75;2098094;28;20032;-68
2023/09/30 04:13:14;;;;;;;6.88;1.10;;;;;;;17.94;80.89;100839.91;2098716;28;20131;-68
2023/09/30 04:14:18;;;;;;;7.35;1.90;;;;;;;17.87;80.26;100839.56;2098754;28;20959;-68
2023/09/30 04:15:19;;;;;;;4.53;1.10;;;;;;;17.80;79.73;100843.56;2098996;28;20053;-68
2023/09/30 04:16:23;;;;;;;6.68;1.20;;;;;;;17.79;79.96;100843.88;2098659;28;20504;-68
2023/09/30 04:17:27;;;;;;;7.05;1.20;;;;;;;17.77;79.38;100849.63;2114684;28;20810;-68
2023/09/30 04:18:30;;;;;;;6.47;1.40;;;;;;;17.70;79.06;100846.56;2107050;28;20076;-68
2023/09/30 04:19:32;;;;;;;7.53;1.30;;;;;;;17.67;79.18;100852.66;2098957;28;20147;-68
2023/09/30 04:20:33;;;;;;;4.70;1.30;;;;;;;17.66;79.53;100853.78;2082153;28;20034;-68
2023/09/30 04:21:38;;;;;;;7.78;1.35;;;;;;;17.62;79.53;100863.66;2082489;28;20239;-68
2023/09/30 04:22:40;;;;;;;5.55;1.30;;;;;;;17.57;79.37;100851.03;2082109;28;20161;-68
2023/09/30 04:23:42;;;;;;;6.07;1.77;;;;;;;17.53;79.45;100843.84;2090571;28;20040;-68
2023/09/30 04:24:46;;;;;;;5.05;1.55;;;;;;;17.51;79.68;100848.78;2106790;28;20766;-68
2023/09/30 04:25:50;;;;;;;8.30;1.45;;;;;;;17.43;79.67;100855.00;2106863;28;20052;-68
2023/09/30 04:26:57;;;;;;;7.03;1.67;;;;;;;17.42;79.79;100864.28;2096778;28;20249;-68
2023/09/30 04:27:59;;;;;;;12.60;1.20;;;;;;;17.42;79.84;100869.72;2090871;28;20115;-68
2023/09/30 04:29:01;;;;;;;4.53;1.20;;;;;;;17.38;80.14;100867.63;2090493;28;20040;-68
2023/09/30 04:30:08;;;;;;;7.03;1.60;;;;;;;17.42;79.92;100864.28;2097523;28;20079;-68
2023/09/30 04:31:11;;;;;;;7.85;1.50;;;;;;;17.43;79.92;100865.88;2098391;28;20044;-69
2023/09/30 04:32:13;;;;;;;7.57;1.40;;;;;;;17.43;79.95;100865.88;2082477;28;20056;-68
2023/09/30 04:33:17;;;;;;;7.18;2.00;;;;;;;17.43;80.24;100860.44;2074202;28;20026;-69
2023/09/30 04:34:19;;;;;;;5.05;1.45;;;;;;;17.47;80.11;100869.59;2091390;28;20081;-69
2023/09/30 04:35:22;;;;;;;4.70;1.48;;;;;;;17.42;80.10;100865.09;2106652;28;20020;-68
2023/09/30 04:36:24;;;;;;;8.93;1.67;;;;;;;17.44;80.17;100867.50;2107083;28;20040;-68
2023/09/30 04:37:25;;;;;;;8.00;1.60;;;;;;;17.44;80.34;100871.00;2106877;28;20830;-68
2023/09/30 04:38:27;;;;;;;7.05;1.30;;;;;;;17.48;80.28;100866.53;2098792;28;20033;-68
2023/09/30 04:39:28;;;;;;;9.30;1.40;;;;;;;17.49;80.04;100872.75;2090009;28;20827;-69
2023/09/30 04:40:32;;;;;;;6.72;1.40;;;;;;;17.45;79.53;100869.88;2098690;28;20135;-69
2023/09/30 04:41:34;;;;;;;7.25;1.80;;;;;;;17.37;79.37;100876.91;2106764;28;20020;-69
2023/09/30 04:42:36;;;;;;;5.07;1.40;;;;;;;17.34;79.63;100869.41;2097445;28;20092;-68
2023/09/30 04:43:40;;;;;;;5.85;1.85;;;;;;;17.34;79.93;100874.84;2106783;28;20115;-69
2023/09/30 04:44:43;;;;;;;8.15;1.75;;;;;;;17.31;79.58;100878.19;2098074;28;20029;-69
2023/09/30 04:45:46;;;;;;;7.95;1.50;;;;;;;17.27;79.77;100876.41;2099067;28;20869;-69
2023/09/30 04:46:48;;;;;;;8.85;2.47;;;;;;;17.27;79.96;100882.63;2106775;28;20020;-69
2023/09/30 04:47:50;;;;;;;7.85;1.80;;;;;;;17.29;79.85;100883.13;2106743;28;20109;-69
2023/09/30 04:48:55;;;;;;;8.05;1.70;;;;;;;17.29;79.97;100891.28;2099197;28;20037;-69
2023/09/30 04:49:58;;;;;;;14.05;3.53;;;;;;;17.25;79.46;100887.59;2097947;28;20143;-69
2023/09/30 04:50:59;;;;;;;6.82;1.60;;;;;;;17.20;79.54;100889.66;2090641;28;20025;-69
2023/09/30 04:52:07;;;;;;;8.13;2.25;;;;;;;17.18;79.64;100892.69;2098658;28;20029;-69